Time;durP1;ratioP1;P1;durP2;ratioP2;P2;SDS_P1;SDS_P2;PMS_P1;PMS_P2;Temp;Humidity;BMP_temperature;BMP_pressure;BME280_temperature;BME280_humidity;BME280_pressure;Samples;Min_cycle;Max_cycle;Signal;HPM_P1;HPM_P2
2023/07/15 00:00:49;;;;;;;7.82;6.35;;;;;;;24.44;52.57;94108.09;5051282;28;20138;-74
2023/07/15 00:03:16;;;;;;;10.90;6.72;;;;;;;24.39;52.73;94092.19;5053524;28;20036;-73
2023/07/15 00:05:41;;;;;;;7.82;6.05;;;;;;;24.46;52.84;94103.00;5051792;28;20613;-73
2023/07/15 00:08:07;;;;;;;8.70;6.80;;;;;;;24.39;52.92;94103.06;5052509;28;20036;-73
2023/07/15 00:10:34;;;;;;;8.05;6.05;;;;;;;24.40;53.00;94105.38;5051854;28;20272;-74
2023/07/15 00:13:00;;;;;;;6.75;6.10;;;;;;;24.44;52.80;94106.13;5051388;28;20684;-73
2023/07/15 00:15:26;;;;;;;10.85;6.60;;;;;;;24.44;52.69;94108.09;5052165;28;20045;-73
2023/07/15 00:17:52;;;;;;;12.52;7.13;;;;;;;24.41;52.84;94106.13;5051629;28;20272;-72
2023/07/15 00:20:19;;;;;;;6.50;5.90;;;;;;;24.37;52.73;94094.50;5051756;28;20021;-73
2023/07/15 00:22:45;;;;;;;11.35;6.30;;;;;;;24.30;52.78;94089.09;5051914;28;20031;-73
2023/07/15 00:25:22;;;;;;;8.77;6.60;;;;;;;24.35;52.91;94103.03;5051859;28;20091;-73
2023/07/15 00:27:48;;;;;;;10.88;7.32;;;;;;;24.27;53.21;94098.03;5051179;28;20033;-73
2023/07/15 00:30:16;;;;;;;8.60;6.63;;;;;;;24.29;53.45;94098.44;5051370;28;20039;-72
2023/07/15 00:32:45;;;;;;;12.80;7.28;;;;;;;24.29;53.56;94098.44;5053101;28;20033;-73
2023/07/15 00:35:29;;;;;;;9.13;6.18;;;;;;;24.23;53.46;94094.56;5051193;28;20035;-73
2023/07/15 00:37:56;;;;;;;6.28;5.55;;;;;;;24.18;53.63;94105.81;5052174;28;20029;-73
2023/07/15 00:40:21;;;;;;;9.98;6.65;;;;;;;24.25;53.98;94113.94;5050632;28;20028;-73
2023/07/15 00:42:53;;;;;;;8.40;6.95;;;;;;;24.23;53.71;94110.88;5051875;28;20582;-74
2023/07/15 00:45:18;;;;;;;13.55;7.13;;;;;;;24.18;53.70;94109.31;5049339;28;20033;-73
2023/07/15 00:48:28;;;;;;;10.27;6.97;;;;;;;24.19;54.06;94112.81;5051774;28;20047;-73
2023/07/15 00:50:54;;;;;;;10.20;6.95;;;;;;;24.12;53.94;94112.81;5049998;28;20040;-72
2023/07/15 00:53:19;;;;;;;8.90;6.65;;;;;;;24.13;54.15;94117.09;5050129;28;20024;-73
2023/07/15 00:55:45;;;;;;;7.82;6.30;;;;;;;24.07;53.78;94110.47;5053199;28;20677;-73
2023/07/15 00:58:10;;;;;;;11.63;7.57;;;;;;;24.09;54.01;94116.31;5051908;28;20508;-72
2023/07/15 01:00:36;;;;;;;9.63;6.90;;;;;;;23.99;53.93;94101.56;5048216;28;20075;-72
2023/07/15 01:03:03;;;;;;;9.70;6.72;;;;;;;24.10;54.04;94126.00;5052538;28;20037;-73
2023/07/15 01:05:28;;;;;;;9.82;6.55;;;;;;;24.08;53.89;94131.06;5050344;28;20156;-73
2023/07/15 01:07:53;;;;;;;8.93;7.20;;;;;;;24.08;53.88;94120.19;5051638;28;20465;-73
2023/07/15 01:10:19;;;;;;;11.15;6.70;;;;;;;24.05;54.33;94119.03;5050577;28;20048;-72
2023/07/15 01:12:44;;;;;;;9.57;6.30;;;;;;;24.03;54.52;94129.50;5047138;28;20442;-73
2023/07/15 01:15:10;;;;;;;11.18;7.68;;;;;;;24.00;54.15;94120.19;5051832;28;20044;-72
2023/07/15 01:17:36;;;;;;;9.27;6.88;;;;;;;24.01;54.62;94129.88;5049380;28;20047;-72
2023/07/15 01:20:02;;;;;;;9.52;6.63;;;;;;;23.87;54.48;94116.34;5051061;28;20020;-72
2023/07/15 01:22:29;;;;;;;9.32;6.85;;;;;;;23.92;54.85;94129.53;5051787;28;20512;-72
2023/07/15 01:24:54;;;;;;;13.35;7.63;;;;;;;23.81;54.90;94126.03;5050120;28;20075;-72
2023/07/15 01:27:20;;;;;;;10.73;6.90;;;;;;;23.72;55.04;94120.22;5051679;28;20048;-72
2023/07/15 01:29:46;;;;;;;9.57;7.03;;;;;;;23.81;55.02;94133.41;5050075;28;20155;-72
2023/07/15 01:32:11;;;;;;;8.70;7.25;;;;;;;23.69;55.29;94121.00;5051580;28;20676;-72
2023/07/15 01:34:36;;;;;;;10.70;7.35;;;;;;;23.73;55.45;94127.22;5049485;28;20017;-72
2023/07/15 01:37:03;;;;;;;9.48;6.03;;;;;;;23.69;55.48;94120.22;5051014;28;20053;-72
2023/07/15 01:39:29;;;;;;;9.18;7.32;;;;;;;23.64;55.40;94107.81;5051078;28;20033;-73
2023/07/15 01:41:55;;;;;;;8.63;6.63;;;;;;;23.70;55.50;94132.66;5051901;28;20037;-72
2023/07/15 01:44:22;;;;;;;8.95;7.65;;;;;;;23.72;55.79;94136.50;5050740;28;20729;-73
2023/07/15 01:46:47;;;;;;;9.98;6.90;;;;;;;23.71;55.61;94140.38;5045360;28;20475;-73
2023/07/15 01:49:13;;;;;;;10.65;7.60;;;;;;;23.67;55.78;94134.19;5054181;28;20427;-72
2023/07/15 01:51:39;;;;;;;8.77;7.68;;;;;;;23.69;55.55;94131.09;5055290;28;20466;-72
2023/07/15 01:54:04;;;;;;;9.43;6.53;;;;;;;23.61;55.43;94113.25;5053756;28;20068;-72
2023/07/15 01:56:30;;;;;;;7.07;6.38;;;;;;;23.51;56.11;94121.00;5052829;28;20340;-71
2023/07/15 01:58:55;;;;;;;8.32;6.72;;;;;;;23.52;55.84;94116.34;5052480;28;20503;-72
2023/07/15 02:01:21;;;;;;;9.07;7.18;;;;;;;23.51;55.98;94114.81;5049735;28;20294;-72
2023/07/15 02:03:46;;;;;;;8.93;6.65;;;;;;;23.49;55.84;94128.00;5052349;28;20606;-72
2023/07/15 02:06:13;;;;;;;11.70;7.55;;;;;;;23.45;55.84;94116.31;5055785;28;20045;-72
2023/07/15 02:08:39;;;;;;;12.18;7.50;;;;;;;23.48;55.71;94129.13;5054683;28;20101;-72
2023/07/15 02:11:04;;;;;;;8.77;7.30;;;;;;;23.46;55.93;94123.31;5054027;28;20048;-72
2023/07/15 02:13:29;;;;;;;8.75;7.50;;;;;;;23.45;55.90;94127.97;5055557;28;20048;-73
2023/07/15 02:15:55;;;;;;;10.15;7.65;;;;;;;23.39;55.98;94134.16;5053699;28;20123;-72
2023/07/15 02:18:22;;;;;;;13.73;7.32;;;;;;;23.44;55.86;94136.50;5053969;28;20521;-72
2023/07/15 02:20:49;;;;;;;8.40;6.47;;;;;;;23.40;56.00;94130.28;5052750;28;20067;-72
2023/07/15 02:23:15;;;;;;;8.55;7.10;;;;;;;23.42;55.93;94133.38;5055421;28;20028;-72
2023/07/15 02:25:41;;;;;;;9.02;8.10;;;;;;;23.34;55.95;94121.75;5054345;28;20372;-72
2023/07/15 02:28:06;;;;;;;9.18;7.70;;;;;;;23.29;56.09;94119.41;5055071;28;20036;-72
2023/07/15 02:30:32;;;;;;;10.82;7.13;;;;;;;23.26;56.42;94119.41;5053260;28;20029;-73
2023/07/15 02:32:58;;;;;;;10.35;7.90;;;;;;;23.31;56.25;94127.19;5055182;28;20578;-72
2023/07/15 02:35:23;;;;;;;12.18;7.43;;;;;;;23.21;56.32;94122.50;5053798;28;20094;-72
2023/07/15 02:37:49;;;;;;;12.35;7.35;;;;;;;22.83;56.24;94062.34;5054471;28;20024;-73
2023/07/15 02:40:15;;;;;;;12.05;8.10;;;;;;;23.22;56.68;94127.53;5052589;28;20047;-72
2023/07/15 02:42:40;;;;;;;11.13;7.68;;;;;;;23.20;56.73;94137.22;5054547;28;20082;-72
2023/07/15 02:45:11;;;;;;;10.02;8.13;;;;;;;23.23;56.45;94136.44;5053110;28;20123;-72
2023/07/15 02:47:39;;;;;;;8.40;7.50;;;;;;;23.17;56.68;94123.25;5053618;28;20151;-72
2023/07/15 02:50:07;;;;;;;8.05;7.15;;;;;;;23.30;56.52;94133.75;5051416;28;20107;-72
2023/07/15 02:52:34;;;;;;;8.93;7.47;;;;;;;23.17;56.60;94127.16;5054721;28;20508;-73
2023/07/15 02:55:04;;;;;;;11.73;7.15;;;;;;;23.23;56.55;94139.16;5051898;28;20131;-72
2023/07/15 02:57:29;;;;;;;9.38;7.65;;;;;;;23.18;56.92;94134.91;5053620;28;20044;-72
2023/07/15 02:59:56;;;;;;;9.55;7.63;;;;;;;23.17;56.78;94138.00;5049577;28;20044;-72
2023/07/15 03:02:22;;;;;;;12.23;7.35;;;;;;;23.10;56.76;94128.69;5052247;28;20543;-72
2023/07/15 03:04:48;;;;;;;8.77;7.20;;;;;;;23.12;57.00;94134.50;5054003;28;20032;-72
2023/07/15 03:07:13;;;;;;;11.88;8.00;;;;;;;23.10;57.02;94131.41;5051040;28;20033;-71
2023/07/15 03:09:39;;;;;;;9.13;7.13;;;;;;;23.17;57.02;94138.00;5051883;28;20068;-73
2023/07/15 03:12:05;;;;;;;8.10;6.75;;;;;;;23.08;56.94;94139.13;5054176;28;20570;-71
2023/07/15 03:14:30;;;;;;;9.43;7.90;;;;;;;22.95;57.30;94135.25;5052739;28;20440;-73
2023/07/15 03:16:56;;;;;;;8.50;6.80;;;;;;;22.99;57.14;94133.31;5053908;28;20029;-72
2023/07/15 03:19:21;;;;;;;10.00;7.68;;;;;;;23.02;57.32;94146.13;5050323;28;21139;-72
2023/07/15 03:21:47;;;;;;;8.85;7.07;;;;;;;22.97;57.74;94145.72;5054099;28;20041;-72
2023/07/15 03:24:13;;;;;;;11.15;7.72;;;;;;;22.91;57.76;94139.88;5049969;28;20041;-73
2023/07/15 03:26:38;;;;;;;9.30;7.43;;;;;;;22.95;58.06;94146.09;5053060;28;20033;-72
2023/07/15 03:29:08;;;;;;;10.95;7.53;;;;;;;23.01;57.80;94151.94;5053530;28;20025;-72
2023/07/15 03:31:33;;;;;;;13.02;7.78;;;;;;;22.90;57.96;94129.41;5051752;28;20132;-72
2023/07/15 03:33:59;;;;;;;14.70;8.90;;;;;;;22.99;57.71;94138.75;5051559;28;20571;-72
2023/07/15 03:36:24;;;;;;;9.70;7.53;;;;;;;23.02;57.81;94143.41;5053634;28;20041;-72
2023/07/15 03:38:50;;;;;;;10.60;7.78;;;;;;;22.97;58.17;94132.16;5052067;28;20028;-72
2023/07/15 03:41:15;;;;;;;11.70;7.43;;;;;;;23.03;58.26;94139.50;5053002;28;20028;-72
2023/07/15 03:43:41;;;;;;;16.63;7.93;;;;;;;22.96;58.65;94130.59;5053240;28;20039;-73
2023/07/15 03:46:06;;;;;;;12.57;7.78;;;;;;;22.96;58.64;94127.88;5052681;28;20097;-72
2023/07/15 03:48:31;;;;;;;15.27;9.75;;;;;;;23.02;58.62;94121.72;5050345;28;20033;-72
2023/07/15 03:50:57;;;;;;;13.55;10.20;;;;;;;22.88;58.46;94110.81;5051292;28;20037;-72
2023/07/15 03:53:22;;;;;;;16.55;9.68;;;;;;;22.97;58.64;94119.38;5052486;28;20024;-73
2023/07/15 03:55:48;;;;;;;15.60;10.10;;;;;;;23.09;58.56;94135.28;5047151;28;20040;-72
2023/07/15 03:58:13;;;;;;;17.48;9.75;;;;;;;23.13;58.18;94136.06;5050473;28;20386;-73
2023/07/15 04:00:38;;;;;;;15.15;8.63;;;;;;;23.19;58.60;94130.25;5050587;28;20043;-72
2023/07/15 04:03:04;;;;;;;11.63;7.95;;;;;;;23.26;58.33;94146.56;5050817;28;20028;-72
2023/07/15 04:05:29;;;;;;;16.85;8.23;;;;;;;23.27;58.41;94148.09;5052675;28;20040;-72
2023/07/15 04:07:55;;;;;;;12.48;9.35;;;;;;;23.05;58.21;94112.78;5050466;28;20552;-72
2023/07/15 04:10:20;;;;;;;19.65;9.32;;;;;;;23.27;58.00;94137.25;5051110;28;20118;-72
2023/07/15 04:12:46;;;;;;;13.18;8.82;;;;;;;23.31;57.90;94148.88;5051333;28;20036;-72
2023/07/15 04:15:11;;;;;;;12.93;8.45;;;;;;;23.32;58.39;94166.72;5053283;28;20037;-73
2023/07/15 04:17:37;;;;;;;12.98;9.13;;;;;;;23.44;57.71;94158.19;5048958;28;20098;-72
2023/07/15 04:20:13;;;;;;;15.38;8.93;;;;;;;23.52;57.85;94166.00;5052191;28;20021;-73
2023/07/15 04:22:39;;;;;;;12.68;8.43;;;;;;;23.43;58.14;94172.94;5048953;28;20070;-72
2023/07/15 04:25:05;;;;;;;11.52;8.80;;;;;;;23.43;58.01;94159.34;5053757;28;20202;-72
2023/07/15 04:27:30;;;;;;;12.02;8.95;;;;;;;23.43;58.29;94172.94;5052687;28;20040;-73
2023/07/15 04:29:57;;;;;;;16.02;8.80;;;;;;;23.51;58.15;94185.41;5051224;28;20056;-72
2023/07/15 04:32:22;;;;;;;13.45;8.77;;;;;;;23.48;58.18;94180.69;5050408;28;20494;-72
2023/07/15 04:34:50;;;;;;;10.90;8.70;;;;;;;23.57;57.91;94178.41;5051758;28;20028;-72
2023/07/15 04:37:18;;;;;;;14.25;8.75;;;;;;;23.55;57.29;94172.59;5049816;28;20049;-72
2023/07/15 04:39:44;;;;;;;12.25;9.05;;;;;;;23.61;57.48;94184.63;5052344;28;20081;-72
2023/07/15 04:42:10;;;;;;;12.07;8.65;;;;;;;23.62;58.26;94186.16;5051022;28;20036;-73
2023/07/15 04:44:36;;;;;;;12.65;8.32;;;;;;;23.60;57.85;94185.78;5051854;28;20036;-72
2023/07/15 04:47:01;;;;;;;11.68;8.68;;;;;;;23.62;57.60;94190.81;5051073;28;20442;-72
2023/07/15 04:49:27;;;;;;;10.07;8.02;;;;;;;23.58;57.50;94183.44;5050960;28;20048;-72
2023/07/15 04:51:52;;;;;;;12.02;7.63;;;;;;;23.61;57.34;94184.63;5049790;28;20555;-72
2023/07/15 04:54:18;;;;;;;9.32;7.07;;;;;;;23.60;56.82;94191.22;5052362;28;20058;-72
2023/07/15 04:56:43;;;;;;;11.88;7.72;;;;;;;23.49;58.21;94187.72;5049752;28;20029;-72
2023/07/15 04:59:08;;;;;;;9.38;8.43;;;;;;;23.57;58.65;94186.53;5050356;28;20056;-72
2023/07/15 05:01:34;;;;;;;15.90;9.10;;;;;;;23.48;58.15;94153.53;5050805;28;20100;-72
2023/07/15 05:04:01;;;;;;;12.00;9.65;;;;;;;23.72;57.38;94179.97;5051029;28;20040;-72
2023/07/15 05:06:27;;;;;;;11.73;8.77;;;;;;;23.75;58.99;94173.78;5049966;28;20067;-72
2023/07/15 05:08:53;;;;;;;13.77;8.73;;;;;;;23.85;58.73;94188.50;5049894;28;20325;-73
2023/07/15 05:11:19;;;;;;;12.25;9.10;;;;;;;23.96;57.19;94183.84;5049951;28;20020;-72
2023/07/15 05:13:46;;;;;;;17.88;9.05;;;;;;;23.83;56.94;94169.88;5052019;28;20032;-73
2023/07/15 05:16:12;;;;;;;19.42;10.48;;;;;;;23.93;57.37;94188.13;5052346;28;20115;-72
2023/07/15 05:18:37;;;;;;;12.60;9.63;;;;;;;24.04;56.95;94192.78;5050738;28;20035;-72
2023/07/15 05:21:03;;;;;;;14.80;9.90;;;;;;;23.84;57.38;94185.03;5049886;28;20031;-72
2023/07/15 05:23:31;;;;;;;13.10;10.27;;;;;;;23.97;57.31;94185.38;5054590;28;20428;-72
2023/07/15 05:25:58;;;;;;;12.07;9.80;;;;;;;24.07;57.52;94183.84;5055581;28;20507;-72
2023/07/15 05:28:26;;;;;;;17.17;9.98;;;;;;;24.09;58.29;94176.06;5058752;28;20032;-72
2023/07/15 05:30:51;;;;;;;16.85;10.48;;;;;;;24.19;57.93;94180.75;5056303;28;20484;-72
2023/07/15 05:33:17;;;;;;;15.73;10.80;;;;;;;24.01;57.35;94153.56;5058408;28;20043;-72
2023/07/15 05:35:42;;;;;;;17.05;10.75;;;;;;;24.27;58.08;94177.63;5057012;28;20097;-72
2023/07/15 05:38:08;;;;;;;17.48;12.18;;;;;;;24.32;57.30;94168.28;5058496;28;20063;-72
2023/07/15 05:40:33;;;;;;;16.60;10.07;;;;;;;24.35;57.00;94162.84;5055390;28;20025;-73
2023/07/15 05:42:59;;;;;;;17.42;11.70;;;;;;;24.56;57.01;94181.06;5058095;28;20043;-72
2023/07/15 05:45:25;;;;;;;16.77;11.48;;;;;;;24.63;57.15;94188.41;5056888;28;20353;-72
2023/07/15 05:47:50;;;;;;;17.88;10.82;;;;;;;24.65;57.01;94189.56;5058884;28;20113;-72
2023/07/15 05:50:16;;;;;;;17.52;11.48;;;;;;;24.71;56.69;94187.22;5055366;28;20594;-72
2023/07/15 05:52:41;;;;;;;18.88;12.50;;;;;;;24.69;55.80;94187.59;5058835;28;20174;-72
2023/07/15 05:55:07;;;;;;;16.10;10.75;;;;;;;24.82;55.90;94196.94;5055042;28;20389;-72
2023/07/15 05:57:33;;;;;;;16.60;12.15;;;;;;;24.89;55.95;94200.78;5057646;28;20071;-72
2023/07/15 05:59:58;;;;;;;21.48;11.02;;;;;;;24.94;55.79;94192.19;5054869;28;20737;-72
2023/07/15 06:02:25;;;;;;;15.52;12.13;;;;;;;25.13;55.74;94211.56;5057678;28;20020;-72
2023/07/15 06:04:51;;;;;;;15.82;11.20;;;;;;;25.13;55.23;94199.88;5057486;28;20110;-73
2023/07/15 06:07:16;;;;;;;16.80;12.35;;;;;;;25.20;55.10;94199.88;5056416;28;20033;-72
2023/07/15 06:09:42;;;;;;;15.75;11.77;;;;;;;25.30;54.66;94209.94;5054825;28;20404;-73
2023/07/15 06:12:07;;;;;;;17.10;11.75;;;;;;;25.32;54.68;94202.19;5058703;28;20513;-72
2023/07/15 06:14:33;;;;;;;17.35;10.02;;;;;;;25.34;54.36;94199.81;5056175;28;20139;-73
2023/07/15 06:16:58;;;;;;;15.65;11.20;;;;;;;25.30;54.64;94177.25;5057963;28;20056;-72
2023/07/15 06:19:24;;;;;;;15.20;10.85;;;;;;;25.52;54.87;94199.69;5055819;28;20110;-73
2023/07/15 06:21:50;;;;;;;15.45;10.68;;;;;;;25.49;53.74;94179.50;5056571;28;20041;-73
2023/07/15 06:24:15;;;;;;;12.85;10.23;;;;;;;25.62;53.43;94188.75;5055333;28;20123;-73
2023/07/15 06:26:40;;;;;;;14.00;11.13;;;;;;;25.69;52.98;94174.31;5057351;28;20039;-72
2023/07/15 06:29:06;;;;;;;19.77;12.55;;;;;;;25.69;52.57;94183.25;5057326;28;20024;-72
2023/07/15 06:31:31;;;;;;;14.60;11.13;;;;;;;25.70;53.39;94179.38;5057563;28;20040;-73
2023/07/15 06:33:56;;;;;;;15.38;12.68;;;;;;;25.84;53.32;94183.16;5048095;28;20480;-72
2023/07/15 06:36:22;;;;;;;13.70;11.05;;;;;;;25.92;52.74;94176.47;5054494;28;20501;-72
2023/07/15 06:38:47;;;;;;;16.50;11.02;;;;;;;25.92;52.60;94173.75;5052435;28;20028;-73
2023/07/15 06:41:13;;;;;;;17.63;11.30;;;;;;;26.00;52.08;94181.50;5055186;28;20033;-73
2023/07/15 06:43:38;;;;;;;17.63;11.20;;;;;;;26.16;51.15;94183.66;5051219;28;20024;-72
2023/07/15 06:46:05;;;;;;;15.50;12.25;;;;;;;26.11;51.02;94182.16;5054151;28;20043;-72
2023/07/15 06:48:31;;;;;;;14.98;11.10;;;;;;;26.17;51.45;94182.50;5053249;28;20045;-72
2023/07/15 06:50:56;;;;;;;21.20;11.10;;;;;;;26.22;51.56;94182.06;5052244;28;20611;-72
2023/07/15 06:53:22;;;;;;;17.67;11.60;;;;;;;26.18;50.11;94170.41;5053571;28;20032;-72
2023/07/15 06:55:47;;;;;;;15.35;10.63;;;;;;;26.34;50.68;94184.28;5054704;28;20464;-72
2023/07/15 06:58:13;;;;;;;18.27;10.77;;;;;;;26.41;50.52;94175.25;5052168;28;20048;-73
2023/07/15 07:00:38;;;;;;;13.75;10.82;;;;;;;26.42;49.37;94184.97;5053583;28;20677;-72
2023/07/15 07:03:04;;;;;;;23.15;10.73;;;;;;;26.20;50.00;94175.47;5053275;28;20142;-72
2023/07/15 07:05:29;;;;;;;13.45;10.88;;;;;;;26.21;50.41;94161.41;5052877;28;20060;-72
2023/07/15 07:07:54;;;;;;;18.08;10.93;;;;;;;26.31;49.41;94174.19;5052866;28;20633;-72
2023/07/15 07:10:20;;;;;;;12.88;10.55;;;;;;;26.22;50.03;94141.16;5053810;28;20094;-72
2023/07/15 07:12:46;;;;;;;15.20;10.80;;;;;;;26.67;49.27;94184.75;5051942;28;20404;-73
2023/07/15 07:15:11;;;;;;;12.50;11.13;;;;;;;26.70;49.08;94186.66;5054362;28;20037;-73
2023/07/15 07:17:37;;;;;;;22.45;10.95;;;;;;;26.71;48.41;94185.47;5050782;28;20042;-72
2023/07/15 07:20:03;;;;;;;17.77;11.40;;;;;;;26.68;48.05;94176.16;5053397;28;20020;-72
2023/07/15 07:22:29;;;;;;;13.20;10.30;;;;;;;26.91;49.18;94183.69;5051822;28;20614;-73
2023/07/15 07:24:54;;;;;;;17.13;10.95;;;;;;;26.94;47.85;94178.19;5053502;28;20037;-73
2023/07/15 07:27:20;;;;;;;19.70;11.52;;;;;;;26.91;47.37;94167.31;5053195;28;20077;-73
2023/07/15 07:29:45;;;;;;;14.75;9.93;;;;;;;27.08;48.17;94182.75;5052717;28;20095;-73
2023/07/15 07:32:11;;;;;;;23.33;10.63;;;;;;;27.13;47.90;94168.59;5051727;28;20142;-72
2023/07/15 07:34:36;;;;;;;14.90;10.63;;;;;;;27.10;48.17;94169.44;5052536;28;20389;-72
2023/07/15 07:37:02;;;;;;;14.85;10.30;;;;;;;27.22;47.93;94173.59;5052485;28;20093;-72
2023/07/15 07:39:28;;;;;;;23.65;10.88;;;;;;;27.24;47.05;94180.16;5053677;28;20035;-74
2023/07/15 07:41:55;;;;;;;15.48;10.60;;;;;;;27.28;47.34;94169.19;5049115;28;20498;-72
2023/07/15 07:44:20;;;;;;;13.88;10.55;;;;;;;27.28;47.47;94174.66;5053303;28;20028;-73
2023/07/15 07:46:45;;;;;;;19.95;10.40;;;;;;;27.30;47.67;94167.59;5053226;28;20925;-72
2023/07/15 07:49:11;;;;;;;15.45;11.77;;;;;;;27.24;47.18;94163.78;5053145;28;20045;-73
2023/07/15 07:51:36;;;;;;;15.30;11.48;;;;;;;27.28;47.22;94169.97;5050992;28;20400;-72
2023/07/15 07:54:02;;;;;;;20.05;11.90;;;;;;;27.34;47.38;94179.25;5050720;28;20028;-72
2023/07/15 07:56:27;;;;;;;16.02;11.02;;;;;;;27.36;47.06;94182.34;5052652;28;20149;-72
2023/07/15 07:58:58;;;;;;;18.67;10.77;;;;;;;27.39;47.40;94178.78;5046052;28;20557;-72
2023/07/15 08:01:25;;;;;;;20.38;11.45;;;;;;;27.30;47.18;94178.53;5052043;28;20057;-73
2023/07/15 08:03:50;;;;;;;14.63;10.77;;;;;;;27.15;47.31;94155.34;5051374;28;20144;-72
2023/07/15 08:06:16;;;;;;;15.13;11.60;;;;;;;27.28;47.38;94180.09;5050608;28;20025;-73
2023/07/15 08:08:41;;;;;;;15.07;10.63;;;;;;;27.34;46.67;94178.47;5053422;28;20040;-72
2023/07/15 08:11:07;;;;;;;16.13;10.93;;;;;;;27.38;47.13;94182.69;5049827;28;20036;-73
2023/07/15 08:13:32;;;;;;;14.30;11.35;;;;;;;27.30;47.05;94175.81;5053157;28;20103;-72
2023/07/15 08:15:59;;;;;;;19.17;12.70;;;;;;;27.37;47.09;94181.16;5050583;28;20036;-73
2023/07/15 08:18:24;;;;;;;15.30;10.40;;;;;;;27.51;47.82;94179.41;5052947;28;20036;-72
2023/07/15 08:20:51;;;;;;;17.63;10.88;;;;;;;27.59;47.65;94189.06;5048055;28;20507;-73
2023/07/15 08:23:16;;;;;;;16.73;10.43;;;;;;;27.53;46.16;94179.75;5053825;28;20027;-73
2023/07/15 08:25:42;;;;;;;11.90;10.18;;;;;;;27.52;46.20;94189.91;5045692;28;20024;-73
2023/07/15 08:28:08;;;;;;;14.48;10.88;;;;;;;27.52;46.19;94181.72;5053805;28;20519;-73
2023/07/15 08:30:36;;;;;;;15.50;10.27;;;;;;;27.31;46.58;94171.88;5050292;28;20045;-72
2023/07/15 08:33:02;;;;;;;16.27;10.73;;;;;;;27.40;46.52;94183.06;5052726;28;20036;-72
2023/07/15 08:35:28;;;;;;;14.75;10.68;;;;;;;27.48;46.32;94197.38;5051456;28;20585;-74
2023/07/15 08:37:53;;;;;;;15.55;10.68;;;;;;;27.44;46.09;94171.31;5051912;28;20107;-72
2023/07/15 08:40:23;;;;;;;14.65;11.45;;;;;;;27.35;45.81;94163.63;5051339;28;20037;-72
2023/07/15 08:42:49;;;;;;;16.95;11.45;;;;;;;27.38;46.15;94171.00;5051853;28;20098;-72
2023/07/15 08:45:14;;;;;;;14.63;11.27;;;;;;;27.44;46.08;94176.78;5051453;28;20045;-71
2023/07/15 08:47:43;;;;;;;14.43;11.00;;;;;;;27.33;46.47;94166.00;5051657;28;20135;-72
2023/07/15 08:50:11;;;;;;;17.33;11.07;;;;;;;27.44;46.18;94180.28;5049173;28;20020;-73
2023/07/15 08:52:38;;;;;;;22.35;11.32;;;;;;;27.51;46.41;94182.94;5051593;28;20064;-73
2023/07/15 08:55:05;;;;;;;16.23;12.88;;;;;;;27.55;46.71;94174.66;5050367;28;20028;-72
2023/07/15 08:57:32;;;;;;;18.33;10.02;;;;;;;27.58;46.61;94163.72;5051668;28;20040;-72
2023/07/15 08:59:58;;;;;;;13.10;11.05;;;;;;;27.86;46.21;94178.91;5048456;28;20040;-72
2023/07/15 09:02:23;;;;;;;13.30;10.20;;;;;;;27.71;44.94;94166.66;5052058;28;20039;-73
2023/07/15 09:04:49;;;;;;;12.10;10.18;;;;;;;27.77;45.13;94181.38;5051610;28;20028;-73
2023/07/15 09:07:14;;;;;;;20.92;11.18;;;;;;;27.73;45.70;94167.00;5049538;28;20060;-72
2023/07/15 09:09:40;;;;;;;17.83;10.93;;;;;;;27.86;45.75;94169.94;5051195;28;20029;-72
2023/07/15 09:12:09;;;;;;;13.23;10.73;;;;;;;27.95;45.43;94173.69;5052604;28;20044;-73
2023/07/15 09:14:42;;;;;;;15.05;12.43;;;;;;;28.05;45.31;94161.03;5050128;28;20944;-73
2023/07/15 09:17:07;;;;;;;17.42;10.10;;;;;;;28.01;44.99;94171.25;5050962;28;20021;-72
2023/07/15 09:19:34;;;;;;;19.65;11.07;;;;;;;28.04;45.47;94186.81;5043396;28;20028;-73
2023/07/15 09:22:08;;;;;;;15.85;11.30;;;;;;;28.02;45.61;94170.03;5052570;28;20125;-73
2023/07/15 09:24:36;;;;;;;12.77;11.25;;;;;;;27.96;45.13;94169.00;5049657;28;20036;-73
2023/07/15 09:27:02;;;;;;;16.88;11.82;;;;;;;28.04;45.04;94173.94;5052663;28;20107;-72
2023/07/15 09:29:28;;;;;;;24.10;12.57;;;;;;;28.08;45.59;94171.13;5050289;28;20515;-73
2023/07/15 09:31:54;;;;;;;13.63;11.85;;;;;;;28.12;45.21;94172.63;5052153;28;20120;-72
2023/07/15 09:34:19;;;;;;;16.02;11.73;;;;;;;28.17;44.82;94163.19;5049861;28;20133;-71
2023/07/15 09:36:45;;;;;;;15.10;11.52;;;;;;;28.13;44.86;94166.00;5051496;28;20068;-74
2023/07/15 09:39:17;;;;;;;17.13;11.57;;;;;;;28.25;45.15;94159.16;5051585;28;20035;-71
2023/07/15 09:41:43;;;;;;;18.70;12.07;;;;;;;28.35;45.56;94157.41;5050270;28;20036;-72
2023/07/15 09:44:09;;;;;;;17.23;11.50;;;;;;;28.33;44.26;94151.56;5050515;28;20469;-73
2023/07/15 09:46:34;;;;;;;16.42;12.00;;;;;;;28.45;44.15;94159.94;5049598;28;20025;-73
2023/07/15 09:49:00;;;;;;;18.45;11.77;;;;;;;28.42;44.35;94151.81;5050867;28;20072;-73
2023/07/15 09:51:26;;;;;;;20.17;12.68;;;;;;;28.47;43.17;94152.09;5045989;28;20041;-73
2023/07/15 09:53:54;;;;;;;18.58;11.93;;;;;;;28.36;43.66;94137.06;5052156;28;20044;-72
2023/07/15 09:56:36;;;;;;;13.52;11.50;;;;;;;28.50;43.37;94139.56;5049809;28;20028;-73
2023/07/15 09:59:09;;;;;;;16.05;11.57;;;;;;;28.55;44.02;94149.97;5050300;28;20510;-72
2023/07/15 10:01:59;;;;;;;15.93;11.00;;;;;;;28.58;44.30;94140.94;5047693;28;20051;-72
2023/07/15 10:04:28;;;;;;;14.38;11.88;;;;;;;28.65;45.07;94140.81;5043078;28;20039;-72
2023/07/15 10:06:53;;;;;;;20.77;11.82;;;;;;;28.43;43.92;94137.72;5049307;28;20434;-73
2023/07/15 10:09:22;;;;;;;16.23;12.45;;;;;;;28.42;44.05;94136.16;5051755;28;20028;-72
2023/07/15 10:11:51;;;;;;;17.60;11.60;;;;;;;28.44;43.54;94146.69;5054995;28;20519;-73
2023/07/15 10:14:18;;;;;;;14.25;11.48;;;;;;;28.53;44.30;94133.22;5051553;28;20634;-72
2023/07/15 10:16:43;;;;;;;19.77;12.82;;;;;;;28.49;44.31;94146.22;5056324;28;20069;-72
2023/07/15 10:19:37;;;;;;;18.35;12.30;;;;;;;28.51;44.20;94143.81;5053923;28;20032;-73
2023/07/15 10:22:03;;;;;;;14.07;11.50;;;;;;;28.50;43.65;94142.28;5055323;28;20042;-72
2023/07/15 10:24:29;;;;;;;17.95;10.95;;;;;;;28.59;43.87;94118.66;5054096;28;20041;-72
2023/07/15 10:26:54;;;;;;;15.20;10.95;;;;;;;28.73;44.18;94128.56;5053931;28;20412;-73
2023/07/15 10:29:23;;;;;;;19.20;12.60;;;;;;;28.71;43.00;94122.72;5051658;28;20334;-73
2023/07/15 10:32:11;;;;;;;14.35;12.65;;;;;;;28.59;44.14;94126.09;5056005;28;20504;-72
2023/07/15 10:34:49;;;;;;;16.30;12.05;;;;;;;28.80;43.95;94136.63;5053590;28;20386;-72
2023/07/15 10:37:16;;;;;;;20.10;13.20;;;;;;;28.63;46.19;94088.47;5052817;28;20064;-72
2023/07/15 10:39:42;;;;;;;15.02;12.52;;;;;;;28.93;47.97;94126.59;5054849;28;20028;-72
2023/07/15 10:42:13;;;;;;;19.98;12.35;;;;;;;28.87;43.49;94136.47;5053819;28;20036;-72
2023/07/15 10:44:40;;;;;;;15.85;12.15;;;;;;;28.84;43.38;94131.84;5053015;28;20036;-72
2023/07/15 10:47:07;;;;;;;19.15;12.90;;;;;;;28.79;44.33;94129.63;5053092;28;20447;-72
2023/07/15 10:49:33;;;;;;;16.10;12.52;;;;;;;28.73;43.60;94125.81;5054743;28;22377;-72
2023/07/15 10:51:59;;;;;;;15.10;13.15;;;;;;;28.88;44.51;94140.00;5053514;28;20037;-72
2023/07/15 10:54:26;;;;;;;17.48;12.57;;;;;;;29.02;43.76;94124.03;5054396;28;20032;-72
2023/07/15 10:56:52;;;;;;;14.43;11.82;;;;;;;29.10;44.25;94125.41;5053173;28;20037;-72
2023/07/15 10:59:18;;;;;;;14.73;12.05;;;;;;;29.05;42.72;94111.47;5051485;28;20386;-72
2023/07/15 11:01:44;;;;;;;19.42;12.65;;;;;;;29.07;43.59;94126.28;5052368;28;20051;-72
2023/07/15 11:04:11;;;;;;;24.90;13.43;;;;;;;29.17;43.64;94121.81;5052554;28;20032;-72
2023/07/15 11:06:37;;;;;;;15.07;11.60;;;;;;;29.10;43.02;94130.91;5052245;28;20416;-72
2023/07/15 11:09:19;;;;;;;16.13;11.93;;;;;;;28.98;43.29;94117.88;5054483;28;20560;-72
2023/07/15 11:11:46;;;;;;;17.98;11.95;;;;;;;29.00;43.12;94110.00;5055083;28;20032;-72
2023/07/15 11:14:22;;;;;;;16.38;13.20;;;;;;;29.14;43.28;94119.09;5051299;28;20070;-72
2023/07/15 11:16:58;;;;;;;17.08;12.93;;;;;;;29.02;42.79;94113.09;5046784;28;20094;-72
2023/07/15 11:19:26;;;;;;;18.20;12.15;;;;;;;29.04;43.84;94120.84;5050446;28;20803;-73